sensor_id;sensor_type;location;lat;lon;timestamp;pressure;altitude;pressure_sealevel;temperature;humidity
49827;BME280;35715;51.570;6.036;2023-02-14T00:00:40;103347.84;;;6.17;85.62
49827;BME280;35715;51.570;6.036;2023-02-14T00:03:05;103352.88;;;6.03;86.59
49827;BME280;35715;51.570;6.036;2023-02-14T00:05:30;103353.28;;;6.06;85.74
49827;BME280;35715;51.570;6.036;2023-02-14T00:07:55;103361.16;;;6.08;85.50
49827;BME280;35715;51.570;6.036;2023-02-14T00:10:22;103363.34;;;6.04;85.75
49827;BME280;35715;51.570;6.036;2023-02-14T00:12:47;103357.63;;;6.00;85.65
49827;BME280;35715;51.570;6.036;2023-02-14T00:15:12;103363.56;;;5.93;86.85
49827;BME280;35715;51.570;6.036;2023-02-14T00:17:47;103354.00;;;5.85;87.70
49827;BME280;35715;51.570;6.036;2023-02-14T00:20:13;103356.19;;;5.82;87.89
49827;BME280;35715;51.570;6.036;2023-02-14T00:22:38;103351.91;;;5.75;87.72
49827;BME280;35715;51.570;6.036;2023-02-14T00:25:03;103349.50;;;5.69;88.15
49827;BME280;35715;51.570;6.036;2023-02-14T00:27:29;103355.19;;;5.74;87.83
49827;BME280;35715;51.570;6.036;2023-02-14T00:29:55;103338.56;;;5.78;87.90
49827;BME280;35715;51.570;6.036;2023-02-14T00:32:22;103342.25;;;5.80;88.48
49827;BME280;35715;51.570;6.036;2023-02-14T00:34:47;103339.63;;;5.73;88.05
49827;BME280;35715;51.570;6.036;2023-02-14T00:37:21;103335.03;;;5.70;88.35
49827;BME280;35715;51.570;6.036;2023-02-14T00:39:46;103342.66;;;5.63;88.50
49827;BME280;35715;51.570;6.036;2023-02-14T00:42:11;103329.25;;;5.58;89.08
49827;BME280;35715;51.570;6.036;2023-02-14T00:44:40;103330.72;;;5.56;89.72
49827;BME280;35715;51.570;6.036;2023-02-14T00:47:07;103335.91;;;5.63;88.90
49827;BME280;35715;51.570;6.036;2023-02-14T00:49:32;103341.34;;;5.59;88.93
49827;BME280;35715;51.570;6.036;2023-02-14T00:51:57;103337.50;;;5.56;89.07
49827;BME280;35715;51.570;6.036;2023-02-14T00:54:23;103344.75;;;5.53;89.61
49827;BME280;35715;51.570;6.036;2023-02-14T00:56:48;103347.53;;;5.54;90.35
49827;BME280;35715;51.570;6.036;2023-02-14T00:59:13;103345.19;;;5.56;90.97
49827;BME280;35715;51.570;6.036;2023-02-14T01:01:38;103341.03;;;5.63;89.60
49827;BME280;35715;51.570;6.036;2023-02-14T01:04:04;103346.47;;;5.59;90.23
49827;BME280;35715;51.570;6.036;2023-02-14T01:06:31;103347.38;;;5.60;90.36
49827;BME280;35715;51.570;6.036;2023-02-14T01:08:56;103347.97;;;5.64;89.93
49827;BME280;35715;51.570;6.036;2023-02-14T01:11:22;103352.19;;;5.64;90.46
49827;BME280;35715;51.570;6.036;2023-02-14T01:13:48;103351.31;;;5.71;89.48
49827;BME280;35715;51.570;6.036;2023-02-14T01:16:17;103344.88;;;5.67;90.09
49827;BME280;35715;51.570;6.036;2023-02-14T01:18:42;103348.66;;;5.56;90.69
49827;BME280;35715;51.570;6.036;2023-02-14T01:21:08;103346.66;;;5.61;89.89
49827;BME280;35715;51.570;6.036;2023-02-14T01:23:34;103347.00;;;5.57;90.23
49827;BME280;35715;51.570;6.036;2023-02-14T01:26:06;103351.13;;;5.49;89.99
49827;BME280;35715;51.570;6.036;2023-02-14T01:28:31;103352.31;;;5.38;90.50
49827;BME280;35715;51.570;6.036;2023-02-14T01:30:57;103350.22;;;5.28;90.79
49827;BME280;35715;51.570;6.036;2023-02-14T01:33:22;103355.00;;;5.32;90.40
49827;BME280;35715;51.570;6.036;2023-02-14T01:38:15;103344.03;;;5.33;89.94
49827;BME280;35715;51.570;6.036;2023-02-14T01:40:42;103354.41;;;5.28;90.36
49827;BME280;35715;51.570;6.036;2023-02-14T01:43:12;103351.25;;;5.23;90.70
49827;BME280;35715;51.570;6.036;2023-02-14T01:45:39;103343.13;;;5.33;90.35
49827;BME280;35715;51.570;6.036;2023-02-14T01:48:05;103345.81;;;5.27;91.26
49827;BME280;35715;51.570;6.036;2023-02-14T01:50:32;103343.06;;;5.26;91.17
49827;BME280;35715;51.570;6.036;2023-02-14T01:53:02;103345.72;;;5.20;90.87
49827;BME280;35715;51.570;6.036;2023-02-14T01:58:01;103349.66;;;5.11;90.94
49827;BME280;35715;51.570;6.036;2023-02-14T02:00:28;103345.00;;;5.01;92.05
49827;BME280;35715;51.570;6.036;2023-02-14T02:03:12;103345.91;;;5.02;92.36
49827;BME280;35715;51.570;6.036;2023-02-14T02:05:40;103344.06;;;5.01;91.90
49827;BME280;35715;51.570;6.036;2023-02-14T02:08:06;103334.75;;;5.01;91.55
49827;BME280;35715;51.570;6.036;2023-02-14T02:10:32;103336.09;;;4.92;93.04
49827;BME280;35715;51.570;6.036;2023-02-14T02:12:59;103330.78;;;4.90;92.43
49827;BME280;35715;51.570;6.036;2023-02-14T02:15:27;103332.91;;;5.00;91.47
49827;BME280;35715;51.570;6.036;2023-02-14T02:18:04;103333.72;;;5.06;90.56
49827;BME280;35715;51.570;6.036;2023-02-14T02:33:55;103321.81;;;4.74;92.97
49827;BME280;35715;51.570;6.036;2023-02-14T02:36:45;103320.09;;;4.67;93.71
49827;BME280;35715;51.570;6.036;2023-02-14T02:44:50;103315.31;;;4.63;94.24
49827;BME280;35715;51.570;6.036;2023-02-14T02:47:35;103313.16;;;4.66;94.09
49827;BME280;35715;51.570;6.036;2023-02-14T02:55:41;103313.88;;;4.65;94.55
49827;BME280;35715;51.570;6.036;2023-02-14T02:58:28;103311.38;;;4.72;93.10
49827;BME280;35715;51.570;6.036;2023-02-14T03:00:55;103307.00;;;4.71;92.87
49827;BME280;35715;51.570;6.036;2023-02-14T03:03:22;103305.28;;;4.65;93.76
49827;BME280;35715;51.570;6.036;2023-02-14T03:06:07;103310.78;;;4.80;92.66
49827;BME280;35715;51.570;6.036;2023-02-14T03:08:32;103307.41;;;4.74;92.76
49827;BME280;35715;51.570;6.036;2023-02-14T03:10:57;103308.97;;;4.67;93.12
49827;BME280;35715;51.570;6.036;2023-02-14T03:13:46;103311.84;;;4.62;93.33
49827;BME280;35715;51.570;6.036;2023-02-14T03:16:34;103312.75;;;4.63;92.82
49827;BME280;35715;51.570;6.036;2023-02-14T03:21:52;103314.69;;;4.58;92.93
49827;BME280;35715;51.570;6.036;2023-02-14T03:26:55;103315.66;;;4.46;93.83
49827;BME280;35715;51.570;6.036;2023-02-14T03:32:05;103307.88;;;4.39;94.77
49827;BME280;35715;51.570;6.036;2023-02-14T03:34:55;103307.66;;;4.37;94.90
49827;BME280;35715;51.570;6.036;2023-02-14T03:37:24;103312.69;;;4.43;94.40
49827;BME280;35715;51.570;6.036;2023-02-14T03:42:41;103308.63;;;4.38;94.58
49827;BME280;35715;51.570;6.036;2023-02-14T03:45:08;103312.78;;;4.37;94.40
49827;BME280;35715;51.570;6.036;2023-02-14T03:47:35;103312.28;;;4.40;93.96
49827;BME280;35715;51.570;6.036;2023-02-14T03:50:05;103309.94;;;4.41;93.94
49827;BME280;35715;51.570;6.036;2023-02-14T03:52:31;103312.47;;;4.41;94.06
49827;BME280;35715;51.570;6.036;2023-02-14T03:54:57;103312.59;;;4.49;93.63
49827;BME280;35715;51.570;6.036;2023-02-14T03:59:52;103308.78;;;4.65;92.23
49827;BME280;35715;51.570;6.036;2023-02-14T04:04:44;103303.00;;;4.86;91.69
49827;BME280;35715;51.570;6.036;2023-02-14T04:07:11;103311.47;;;4.92;91.41
49827;BME280;35715;51.570;6.036;2023-02-14T04:09:36;103310.72;;;4.93;91.09
49827;BME280;35715;51.570;6.036;2023-02-14T04:12:02;103306.66;;;4.88;90.29
49827;BME280;35715;51.570;6.036;2023-02-14T04:14:27;103316.19;;;4.76;90.59
49827;BME280;35715;51.570;6.036;2023-02-14T04:16:54;103310.72;;;4.60;91.42
49827;BME280;35715;51.570;6.036;2023-02-14T04:19:38;103307.16;;;4.53;91.47
49827;BME280;35715;51.570;6.036;2023-02-14T04:22:03;103311.44;;;4.47;91.04
49827;BME280;35715;51.570;6.036;2023-02-14T04:24:28;103320.25;;;4.36;91.98
49827;BME280;35715;51.570;6.036;2023-02-14T04:26:53;103324.03;;;4.32;92.82
49827;BME280;35715;51.570;6.036;2023-02-14T04:29:37;103326.72;;;4.14;94.61
49827;BME280;35715;51.570;6.036;2023-02-14T04:32:04;103323.56;;;4.09;95.35
49827;BME280;35715;51.570;6.036;2023-02-14T04:34:29;103326.09;;;4.09;95.44
49827;BME280;35715;51.570;6.036;2023-02-14T04:36:54;103319.34;;;4.09;95.62
49827;BME280;35715;51.570;6.036;2023-02-14T04:39:20;103329.97;;;4.13;95.28
49827;BME280;35715;51.570;6.036;2023-02-14T04:41:45;103328.53;;;4.15;95.16
49827;BME280;35715;51.570;6.036;2023-02-14T04:44:10;103323.94;;;3.99;96.10
49827;BME280;35715;51.570;6.036;2023-02-14T04:46:35;103308.81;;;4.01;96.36
49827;BME280;35715;51.570;6.036;2023-02-14T04:49:01;103319.34;;;4.09;95.70
49827;BME280;35715;51.570;6.036;2023-02-14T04:51:26;103311.97;;;4.05;95.46
49827;BME280;35715;51.570;6.036;2023-02-14T04:53:51;103300.97;;;4.12;94.71
49827;BME280;35715;51.570;6.036;2023-02-14T04:56:17;103300.34;;;4.07;94.67
49827;BME280;35715;51.570;6.036;2023-02-14T04:58:43;103301.47;;;4.09;94.84
49827;BME280;35715;51.570;6.036;2023-02-14T05:01:08;103294.91;;;4.12;94.22
49827;BME280;35715;51.570;6.036;2023-02-14T05:03:33;103288.09;;;4.05;94.59
49827;BME280;35715;51.570;6.036;2023-02-14T05:05:58;103293.41;;;4.06;94.54
49827;BME280;35715;51.570;6.036;2023-02-14T05:08:23;103282.56;;;4.02;94.58
49827;BME280;35715;51.570;6.036;2023-02-14T05:10:49;103287.47;;;4.00;94.49
49827;BME280;35715;51.570;6.036;2023-02-14T05:13:14;103291.34;;;3.91;95.47
49827;BME280;35715;51.570;6.036;2023-02-14T05:15:39;103284.50;;;3.97;94.95
49827;BME280;35715;51.570;6.036;2023-02-14T05:18:05;103279.69;;;3.93;95.71
49827;BME280;35715;51.570;6.036;2023-02-14T05:20:30;103285.63;;;3.99;95.08
49827;BME280;35715;51.570;6.036;2023-02-14T05:22:56;103286.66;;;3.94;95.96
49827;BME280;35715;51.570;6.036;2023-02-14T05:25:29;103280.31;;;3.98;95.63
49827;BME280;35715;51.570;6.036;2023-02-14T05:27:54;103277.56;;;3.96;95.43
49827;BME280;35715;51.570;6.036;2023-02-14T05:30:19;103280.94;;;3.89;95.82
49827;BME280;35715;51.570;6.036;2023-02-14T05:32:50;103280.09;;;3.96;94.78
49827;BME280;35715;51.570;6.036;2023-02-14T05:35:15;103284.50;;;3.97;95.28
49827;BME280;35715;51.570;6.036;2023-02-14T05:37:51;103294.03;;;3.98;95.07
49827;BME280;35715;51.570;6.036;2023-02-14T05:40:16;103282.13;;;3.86;95.96
49827;BME280;35715;51.570;6.036;2023-02-14T05:42:42;103282.53;;;3.89;95.86
49827;BME280;35715;51.570;6.036;2023-02-14T05:45:07;103289.22;;;3.94;95.12
49827;BME280;35715;51.570;6.036;2023-02-14T05:47:37;103289.22;;;3.94;94.75
49827;BME280;35715;51.570;6.036;2023-02-14T05:50:02;103285.22;;;3.96;94.66
49827;BME280;35715;51.570;6.036;2023-02-14T05:52:28;103284.81;;;3.93;95.38
49827;BME280;35715;51.570;6.036;2023-02-14T05:54:53;103287.06;;;3.97;95.03
49827;BME280;35715;51.570;6.036;2023-02-14T05:57:19;103289.22;;;3.94;95.09
49827;BME280;35715;51.570;6.036;2023-02-14T05:59:44;103289.22;;;3.94;94.88
49827;BME280;35715;51.570;6.036;2023-02-14T06:02:10;103283.50;;;3.89;95.29
49827;BME280;35715;51.570;6.036;2023-02-14T06:04:35;103282.66;;;3.83;95.89
49827;BME280;35715;51.570;6.036;2023-02-14T06:09:29;103281.53;;;3.94;94.53
49827;BME280;35715;51.570;6.036;2023-02-14T06:11:55;103274.69;;;4.00;93.53
49827;BME280;35715;51.570;6.036;2023-02-14T06:14:21;103276.00;;;4.04;92.66
49827;BME280;35715;51.570;6.036;2023-02-14T06:16:47;103276.97;;;4.04;91.86
49827;BME280;35715;51.570;6.036;2023-02-14T06:19:12;103280.63;;;4.06;92.25
49827;BME280;35715;51.570;6.036;2023-02-14T06:21:38;103288.28;;;4.06;92.40
49827;BME280;35715;51.570;6.036;2023-02-14T06:24:03;103284.28;;;4.08;92.39
49827;BME280;35715;51.570;6.036;2023-02-14T06:26:32;103284.00;;;4.13;91.91
49827;BME280;35715;51.570;6.036;2023-02-14T06:29:00;103285.50;;;4.18;91.28
49827;BME280;35715;51.570;6.036;2023-02-14T06:31:25;103299.63;;;4.21;90.64
49827;BME280;35715;51.570;6.036;2023-02-14T06:33:51;103286.44;;;4.18;90.26
49827;BME280;35715;51.570;6.036;2023-02-14T06:36:17;103290.63;;;4.18;90.72
49827;BME280;35715;51.570;6.036;2023-02-14T06:38:42;103299.31;;;4.13;90.83
49827;BME280;35715;51.570;6.036;2023-02-14T06:41:08;103295.44;;;4.09;91.45
49827;BME280;35715;51.570;6.036;2023-02-14T06:43:34;103295.13;;;4.00;92.27
49827;BME280;35715;51.570;6.036;2023-02-14T06:46:00;103298.59;;;4.01;92.79
49827;BME280;35715;51.570;6.036;2023-02-14T06:48:26;103296.66;;;4.05;91.86
49827;BME280;35715;51.570;6.036;2023-02-14T06:50:51;103301.47;;;4.09;90.91
49827;BME280;35715;51.570;6.036;2023-02-14T06:53:17;103302.06;;;4.14;90.76
49827;BME280;35715;51.570;6.036;2023-02-14T06:55:43;103305.25;;;4.19;90.75
49827;BME280;35715;51.570;6.036;2023-02-14T06:58:09;103305.66;;;4.22;90.38
49827;BME280;35715;51.570;6.036;2023-02-14T07:00:34;103299.13;;;4.24;90.03
49827;BME280;35715;51.570;6.036;2023-02-14T07:02:59;103301.47;;;4.22;90.10
49827;BME280;35715;51.570;6.036;2023-02-14T07:05:24;103311.78;;;4.17;90.94
49827;BME280;35715;51.570;6.036;2023-02-14T07:07:50;103304.84;;;4.16;90.32
49827;BME280;35715;51.570;6.036;2023-02-14T07:10:15;103306.47;;;4.15;90.02
49827;BME280;35715;51.570;6.036;2023-02-14T07:12:40;103309.75;;;4.14;90.35
49827;BME280;35715;51.570;6.036;2023-02-14T07:15:10;103310.78;;;4.09;90.69
49827;BME280;35715;51.570;6.036;2023-02-14T07:20:04;103313.44;;;4.03;91.35
49827;BME280;35715;51.570;6.036;2023-02-14T07:22:30;103312.72;;;4.04;91.67
49827;BME280;35715;51.570;6.036;2023-02-14T07:24:56;103320.34;;;3.91;93.49
49827;BME280;35715;51.570;6.036;2023-02-14T07:27:22;103314.53;;;3.93;93.69
49827;BME280;35715;51.570;6.036;2023-02-14T07:29:47;103330.88;;;3.87;94.30
49827;BME280;35715;51.570;6.036;2023-02-14T07:32:12;103326.50;;;3.86;94.93
49827;BME280;35715;51.570;6.036;2023-02-14T07:34:38;103338.44;;;3.93;94.38
49827;BME280;35715;51.570;6.036;2023-02-14T07:37:05;103332.34;;;3.98;93.94
49827;BME280;35715;51.570;6.036;2023-02-14T07:39:30;103332.13;;;4.09;93.02
49827;BME280;35715;51.570;6.036;2023-02-14T07:41:56;103332.66;;;4.20;92.29
49827;BME280;35715;51.570;6.036;2023-02-14T07:44:21;103327.84;;;4.29;91.95
49827;BME280;35715;51.570;6.036;2023-02-14T07:46:51;103329.56;;;4.35;91.15
49827;BME280;35715;51.570;6.036;2023-02-14T07:49:17;103324.56;;;4.42;90.81
49827;BME280;35715;51.570;6.036;2023-02-14T07:51:42;103319.09;;;4.47;90.27
49827;BME280;35715;51.570;6.036;2023-02-14T07:54:07;103323.91;;;4.51;90.04
49827;BME280;35715;51.570;6.036;2023-02-14T07:56:34;103321.97;;;4.55;89.69
49827;BME280;35715;51.570;6.036;2023-02-14T07:58:59;103323.09;;;4.57;89.68
49827;BME280;35715;51.570;6.036;2023-02-14T08:01:24;103324.53;;;4.55;90.87
49827;BME280;35715;51.570;6.036;2023-02-14T08:03:49;103319.03;;;4.39;92.80
49827;BME280;35715;51.570;6.036;2023-02-14T08:06:16;103325.69;;;4.32;94.12
49827;BME280;35715;51.570;6.036;2023-02-14T08:08:41;103324.44;;;4.35;94.66
49827;BME280;35715;51.570;6.036;2023-02-14T08:11:07;103325.47;;;4.43;94.58
49827;BME280;35715;51.570;6.036;2023-02-14T08:13:32;103320.56;;;4.44;95.09
49827;BME280;35715;51.570;6.036;2023-02-14T08:15:59;103314.53;;;4.44;94.79
49827;BME280;35715;51.570;6.036;2023-02-14T08:18:37;103312.59;;;4.49;94.69
49827;BME280;35715;51.570;6.036;2023-02-14T08:21:04;103315.75;;;4.53;94.82
49827;BME280;35715;51.570;6.036;2023-02-14T08:23:29;103311.53;;;4.54;95.04
49827;BME280;35715;51.570;6.036;2023-02-14T08:25:55;103306.75;;;4.50;95.95
49827;BME280;35715;51.570;6.036;2023-02-14T08:28:20;103311.44;;;4.47;96.27
49827;BME280;35715;51.570;6.036;2023-02-14T08:30:45;103309.53;;;4.51;96.54
49827;BME280;35715;51.570;6.036;2023-02-14T08:33:11;103312.34;;;4.60;95.46
49827;BME280;35715;51.570;6.036;2023-02-14T08:35:42;103305.97;;;4.76;94.79
49827;BME280;35715;51.570;6.036;2023-02-14T08:38:07;103308.81;;;4.85;93.56
49827;BME280;35715;51.570;6.036;2023-02-14T08:40:33;103308.69;;;4.91;93.44
49827;BME280;35715;51.570;6.036;2023-02-14T08:43:00;103308.16;;;4.93;93.21
49827;BME280;35715;51.570;6.036;2023-02-14T08:45:25;103304.97;;;5.02;92.74
49827;BME280;35715;51.570;6.036;2023-02-14T08:47:50;103310.69;;;5.06;93.66
49827;BME280;35715;51.570;6.036;2023-02-14T08:50:17;103306.66;;;5.08;93.03
49827;BME280;35715;51.570;6.036;2023-02-14T08:52:43;103315.53;;;5.18;92.09
49827;BME280;35715;51.570;6.036;2023-02-14T08:55:08;103302.50;;;5.29;91.38
49827;BME280;35715;51.570;6.036;2023-02-14T09:00:02;103314.50;;;5.43;91.42
49827;BME280;35715;51.570;6.036;2023-02-14T09:02:28;103307.34;;;5.40;91.13
49827;BME280;35715;51.570;6.036;2023-02-14T09:04:53;103304.75;;;5.33;93.23
49827;BME280;35715;51.570;6.036;2023-02-14T09:07:19;103306.56;;;5.34;93.96
49827;BME280;35715;51.570;6.036;2023-02-14T09:09:44;103301.97;;;5.31;93.34
49827;BME280;35715;51.570;6.036;2023-02-14T09:12:10;103297.47;;;5.43;93.35
49827;BME280;35715;51.570;6.036;2023-02-14T09:14:38;103290.00;;;5.45;93.14
49827;BME280;35715;51.570;6.036;2023-02-14T09:19:46;103286.13;;;5.61;92.55
49827;BME280;35715;51.570;6.036;2023-02-14T09:22:11;103282.91;;;5.69;91.84
49827;BME280;35715;51.570;6.036;2023-02-14T09:24:37;103292.66;;;5.79;91.14
49827;BME280;35715;51.570;6.036;2023-02-14T09:27:03;103288.88;;;5.90;90.92
49827;BME280;35715;51.570;6.036;2023-02-14T09:29:29;103286.78;;;6.00;90.30
49827;BME280;35715;51.570;6.036;2023-02-14T09:31:55;103283.88;;;6.04;90.16
49827;BME280;35715;51.570;6.036;2023-02-14T09:34:20;103284.69;;;6.18;89.95
49827;BME280;35715;51.570;6.036;2023-02-14T09:36:50;103288.75;;;6.23;90.02
49827;BME280;35715;51.570;6.036;2023-02-14T09:39:15;103289.69;;;6.31;89.84
49827;BME280;35715;51.570;6.036;2023-02-14T09:44:35;103279.50;;;6.45;89.90
49827;BME280;35715;51.570;6.036;2023-02-14T09:47:01;103283.13;;;6.40;90.62
49827;BME280;35715;51.570;6.036;2023-02-14T09:49:30;103285.44;;;6.59;91.27
49827;BME280;35715;51.570;6.036;2023-02-14T09:51:56;103280.59;;;7.32;88.23
49827;BME280;35715;51.570;6.036;2023-02-14T09:54:25;103277.31;;;7.69;86.12
49827;BME280;35715;51.570;6.036;2023-02-14T09:59:46;103273.44;;;8.32;81.62
49827;BME280;35715;51.570;6.036;2023-02-14T10:12:39;103262.94;;;10.55;69.38
49827;BME280;35715;51.570;6.036;2023-02-14T10:15:11;103252.84;;;11.23;67.00
49827;BME280;35715;51.570;6.036;2023-02-14T10:17:43;103261.72;;;11.67;64.99
49827;BME280;35715;51.570;6.036;2023-02-14T10:20:22;103255.75;;;11.68;64.18
49827;BME280;35715;51.570;6.036;2023-02-14T10:22:53;103247.28;;;11.78;63.65
49827;BME280;35715;51.570;6.036;2023-02-14T10:25:25;103253.91;;;12.01;62.75
49827;BME280;35715;51.570;6.036;2023-02-14T10:27:52;103252.88;;;12.25;61.97
49827;BME280;35715;51.570;6.036;2023-02-14T10:30:21;103243.69;;;12.55;60.83
49827;BME280;35715;51.570;6.036;2023-02-14T10:32:55;103244.19;;;13.05;58.14
49827;BME280;35715;51.570;6.036;2023-02-14T10:40:40;103253.50;;;14.42;54.60
49827;BME280;35715;51.570;6.036;2023-02-14T10:45:39;103242.34;;;15.31;52.49
49827;BME280;35715;51.570;6.036;2023-02-14T10:48:13;103235.25;;;15.90;50.93
49827;BME280;35715;51.570;6.036;2023-02-14T10:56:01;103232.44;;;16.40;48.08
49827;BME280;35715;51.570;6.036;2023-02-14T10:58:30;103225.75;;;16.54;48.38
49827;BME280;35715;51.570;6.036;2023-02-14T11:00:58;103223.78;;;16.83;47.09
49827;BME280;35715;51.570;6.036;2023-02-14T11:03:25;103226.84;;;16.78;47.60
49827;BME280;35715;51.570;6.036;2023-02-14T11:05:52;103223.81;;;17.16;47.14
49827;BME280;35715;51.570;6.036;2023-02-14T11:08:50;103221.72;;;17.34;46.84
49827;BME280;35715;51.570;6.036;2023-02-14T11:13:52;103220.63;;;17.88;45.19
49827;BME280;35715;51.570;6.036;2023-02-14T11:16:27;103220.44;;;17.51;45.00
49827;BME280;35715;51.570;6.036;2023-02-14T11:19:07;103222.25;;;17.52;44.71
49827;BME280;35715;51.570;6.036;2023-02-14T11:21:39;103208.66;;;18.25;44.35
49827;BME280;35715;51.570;6.036;2023-02-14T11:24:18;103216.25;;;18.11;44.44
49827;BME280;35715;51.570;6.036;2023-02-14T11:29:13;103201.28;;;19.04;42.66
49827;BME280;35715;51.570;6.036;2023-02-14T11:31:39;103196.56;;;18.99;42.61
49827;BME280;35715;51.570;6.036;2023-02-14T11:34:06;103201.63;;;18.36;42.88
49827;BME280;35715;51.570;6.036;2023-02-14T11:36:43;103192.31;;;18.52;42.71
49827;BME280;35715;51.570;6.036;2023-02-14T11:39:42;103189.13;;;18.32;43.02
49827;BME280;35715;51.570;6.036;2023-02-14T11:42:01;103180.34;;;18.67;42.99
49827;BME280;35715;51.570;6.036;2023-02-14T11:44:28;103181.72;;;19.11;41.40
49827;BME280;35715;51.570;6.036;2023-02-14T11:46:57;103170.59;;;19.27;41.29
49827;BME280;35715;51.570;6.036;2023-02-14T11:49:39;103169.91;;;19.29;41.33
49827;BME280;35715;51.570;6.036;2023-02-14T11:52:09;103170.59;;;19.27;41.02
49827;BME280;35715;51.570;6.036;2023-02-14T11:54:36;103168.63;;;19.75;40.05
49827;BME280;35715;51.570;6.036;2023-02-14T11:59:43;103153.97;;;20.30;40.15
49827;BME280;35715;51.570;6.036;2023-02-14T12:04:50;103151.00;;;21.37;39.47
49827;BME280;35715;51.570;6.036;2023-02-14T12:07:19;103152.00;;;21.24;39.53
49827;BME280;35715;51.570;6.036;2023-02-14T12:09:46;103149.97;;;20.64;38.45
49827;BME280;35715;51.570;6.036;2023-02-14T12:12:25;103138.56;;;20.63;39.10
49827;BME280;35715;51.570;6.036;2023-02-14T12:14:50;103138.16;;;20.57;38.84
49827;BME280;35715;51.570;6.036;2023-02-14T12:20:01;103135.50;;;21.12;38.26
49827;BME280;35715;51.570;6.036;2023-02-14T12:22:33;103130.25;;;20.84;38.17
49827;BME280;35715;51.570;6.036;2023-02-14T12:25:04;103125.84;;;20.69;40.17
49827;BME280;35715;51.570;6.036;2023-02-14T12:27:31;103117.09;;;20.97;39.24
49827;BME280;35715;51.570;6.036;2023-02-14T12:30:20;103116.91;;;20.52;38.85
49827;BME280;35715;51.570;6.036;2023-02-14T12:32:45;103113.31;;;19.97;39.03
49827;BME280;35715;51.570;6.036;2023-02-14T12:37:39;103106.97;;;20.33;39.57
49827;BME280;35715;51.570;6.036;2023-02-14T12:40:10;103105.72;;;20.42;39.10
49827;BME280;35715;51.570;6.036;2023-02-14T12:47:58;103088.56;;;20.47;39.99
49827;BME280;35715;51.570;6.036;2023-02-14T12:55:33;103090.38;;;19.41;41.98
49827;BME280;35715;51.570;6.036;2023-02-14T13:01:08;103080.00;;;17.93;43.35
49827;BME280;35715;51.570;6.036;2023-02-14T13:14:31;103055.97;;;16.71;47.26
49827;BME280;35715;51.570;6.036;2023-02-14T13:22:23;103053.56;;;16.62;47.47
49827;BME280;35715;51.570;6.036;2023-02-14T13:24:54;103052.03;;;16.32;47.66
49827;BME280;35715;51.570;6.036;2023-02-14T13:29:50;103038.00;;;15.98;48.83
49827;BME280;35715;51.570;6.036;2023-02-14T13:32:19;103038.13;;;15.46;49.54
49827;BME280;35715;51.570;6.036;2023-02-14T13:34:46;103040.06;;;15.49;50.36
49827;BME280;35715;51.570;6.036;2023-02-14T13:37:12;103033.06;;;15.37;49.70
49827;BME280;35715;51.570;6.036;2023-02-14T13:39:40;103032.94;;;15.36;50.17
49827;BME280;35715;51.570;6.036;2023-02-14T13:42:09;103036.19;;;15.43;50.15
49827;BME280;35715;51.570;6.036;2023-02-14T13:47:14;103017.84;;;15.42;49.99
49827;BME280;35715;51.570;6.036;2023-02-14T13:49:41;103028.63;;;15.26;50.15
49827;BME280;35715;51.570;6.036;2023-02-14T13:52:10;103021.63;;;14.94;49.99
49827;BME280;35715;51.570;6.036;2023-02-14T13:54:47;103022.44;;;14.83;50.66
49827;BME280;35715;51.570;6.036;2023-02-14T14:02:55;103017.63;;;14.87;51.00
49827;BME280;35715;51.570;6.036;2023-02-14T14:18:41;103013.63;;;14.41;51.42
49827;BME280;35715;51.570;6.036;2023-02-14T14:21:13;103007.28;;;14.48;51.11
49827;BME280;35715;51.570;6.036;2023-02-14T14:23:39;103001.31;;;14.59;50.62
49827;BME280;35715;51.570;6.036;2023-02-14T14:28:49;103003.00;;;14.59;51.26
49827;BME280;35715;51.570;6.036;2023-02-14T14:31:18;102997.69;;;14.57;51.59
49827;BME280;35715;51.570;6.036;2023-02-14T14:33:43;102995.03;;;14.36;51.85
49827;BME280;35715;51.570;6.036;2023-02-14T14:36:09;102997.38;;;14.33;51.62
49827;BME280;35715;51.570;6.036;2023-02-14T14:38:50;102993.09;;;14.44;51.18
49827;BME280;35715;51.570;6.036;2023-02-14T14:41:17;102992.03;;;14.32;51.12
49827;BME280;35715;51.570;6.036;2023-02-14T14:43:42;102979.19;;;14.33;51.38
49827;BME280;35715;51.570;6.036;2023-02-14T14:46:12;102987.66;;;14.41;51.68
49827;BME280;35715;51.570;6.036;2023-02-14T14:48:42;102981.66;;;14.32;51.95
49827;BME280;35715;51.570;6.036;2023-02-14T14:51:14;102983.81;;;14.17;51.93
49827;BME280;35715;51.570;6.036;2023-02-14T14:53:47;102983.41;;;14.12;52.51
49827;BME280;35715;51.570;6.036;2023-02-14T14:56:23;102984.00;;;14.29;52.20
49827;BME280;35715;51.570;6.036;2023-02-14T14:58:49;102977.38;;;14.22;52.41
49827;BME280;35715;51.570;6.036;2023-02-14T15:04:06;102980.41;;;14.08;52.34
49827;BME280;35715;51.570;6.036;2023-02-14T15:09:09;102967.84;;;14.12;53.37
49827;BME280;35715;51.570;6.036;2023-02-14T15:11:35;102962.53;;;14.11;53.09
49827;BME280;35715;51.570;6.036;2023-02-14T15:14:21;102958.63;;;14.06;52.92
49827;BME280;35715;51.570;6.036;2023-02-14T15:17:24;102956.88;;;13.96;52.65
49827;BME280;35715;51.570;6.036;2023-02-14T15:19:41;102952.19;;;13.81;53.04
49827;BME280;35715;51.570;6.036;2023-02-14T15:22:21;102953.34;;;13.85;53.10
49827;BME280;35715;51.570;6.036;2023-02-14T15:24:47;102950.00;;;13.86;53.19
49827;BME280;35715;51.570;6.036;2023-02-14T15:27:18;102961.13;;;13.75;53.11
49827;BME280;35715;51.570;6.036;2023-02-14T15:30:04;102958.53;;;13.75;53.30
49827;BME280;35715;51.570;6.036;2023-02-14T15:32:31;102962.06;;;13.86;53.56
49827;BME280;35715;51.570;6.036;2023-02-14T15:34:59;102961.13;;;13.85;53.47
49827;BME280;35715;51.570;6.036;2023-02-14T15:39:59;102967.97;;;13.74;53.86
49827;BME280;35715;51.570;6.036;2023-02-14T15:45:35;102964.69;;;13.66;53.80
49827;BME280;35715;51.570;6.036;2023-02-14T15:47:42;102952.63;;;13.67;53.95
49827;BME280;35715;51.570;6.036;2023-02-14T15:50:20;102948.59;;;13.60;54.47